createdAt,value
2023-01-30T04:34:33.578Z,14.45
2023-01-30T04:45:09.767Z,15.18
2023-01-30T04:55:46.084Z,14.93
2023-01-30T05:06:23.361Z,16.08
2023-01-30T05:16:59.101Z,15.25
2023-01-30T05:27:34.664Z,16.63
2023-01-30T05:38:10.169Z,14.85
2023-01-30T05:48:46.214Z,15.15
2023-01-30T05:59:21.898Z,14.57
2023-01-30T06:09:57.640Z,14.00
2023-01-30T06:20:33.474Z,13.60
2023-01-30T06:31:09.243Z,12.63
2023-01-30T06:41:45.007Z,11.98
2023-01-30T06:52:21.585Z,12.73
2023-01-30T07:02:57.731Z,10.93
2023-01-30T07:13:33.356Z,11.50
2023-01-30T07:24:08.860Z,11.13
2023-01-30T07:34:44.792Z,11.02
2023-01-30T07:45:20.364Z,10.05
2023-01-30T07:55:56.031Z,11.15
2023-01-30T08:06:31.642Z,10.70
2023-01-30T08:17:07.353Z,11.52
2023-01-30T08:27:43.251Z,11.10
2023-01-30T08:38:19.017Z,11.45
2023-01-30T08:48:54.793Z,11.32
2023-01-30T08:59:30.839Z,10.75
2023-01-30T09:10:06.705Z,10.10
2023-01-30T09:20:42.456Z,9.75
2023-01-30T09:31:18.231Z,10.05
2023-01-30T09:42:09.924Z,9.90
2023-01-30T09:53:25.022Z,10.70
2023-01-30T10:04:14.459Z,11.02
2023-01-30T10:15:05.503Z,9.18
2023-01-30T10:26:09.504Z,7.90
2023-01-30T10:37:15.261Z,6.05
2023-01-30T10:47:59.562Z,5.65
2023-01-30T10:59:03.663Z,5.47
2023-01-30T11:09:41.531Z,4.80
2023-01-30T11:20:20.690Z,3.00
2023-01-30T11:30:59.596Z,2.90
2023-01-30T11:41:35.457Z,3.30
2023-01-30T11:52:12.330Z,2.38
2023-01-30T12:02:49.718Z,3.13
2023-01-30T12:13:39.049Z,2.35
2023-01-30T12:24:28.506Z,2.70
2023-01-30T12:35:16.750Z,2.03
2023-01-30T12:46:23.309Z,2.37
2023-01-30T12:57:15.381Z,2.15
2023-01-30T13:07:57.015Z,2.33
2023-01-30T13:18:52.577Z,3.13
2023-01-30T13:29:40.096Z,2.65
2023-01-30T13:40:18.274Z,3.28
2023-01-30T13:51:12.934Z,3.33
2023-01-30T14:02:03.975Z,3.33
2023-01-30T14:12:45.871Z,3.17
2023-01-30T14:23:34.730Z,3.58
2023-01-30T14:34:46.838Z,3.22
2023-01-30T14:45:49.506Z,3.38
2023-01-30T14:56:41.610Z,4.15
2023-01-30T15:07:44.141Z,4.95
2023-01-30T15:18:55.356Z,7.32
2023-01-30T15:29:58.835Z,12.10
2023-01-30T15:40:34.261Z,5.82
2023-01-30T15:51:15.776Z,5.72
2023-01-30T16:02:03.941Z,8.95
2023-01-30T16:12:40.998Z,7.97
2023-01-30T16:23:22.674Z,7.32
2023-01-30T16:33:58.589Z,7.10
2023-01-30T16:44:34.149Z,7.88
2023-01-30T16:55:26.549Z,6.70
2023-01-30T17:06:14.948Z,7.82
2023-01-30T17:17:07.570Z,5.77
2023-01-30T17:27:43.234Z,5.40
2023-01-30T17:38:18.845Z,6.65
2023-01-30T17:48:56.049Z,6.80
2023-01-30T17:59:32.504Z,9.35
2023-01-30T18:10:14.393Z,9.02
2023-01-30T18:20:50.384Z,13.63
2023-01-30T18:31:29.236Z,10.27
2023-01-30T18:42:06.304Z,5.57
2023-01-30T18:52:41.785Z,5.13
2023-01-30T19:03:17.182Z,4.40
2023-01-30T19:13:53.890Z,5.68
2023-01-30T19:24:29.369Z,10.65
2023-01-30T19:35:05.107Z,6.47
2023-01-30T19:45:42.484Z,7.07
2023-01-30T19:56:21.588Z,8.20
2023-01-30T20:06:57.321Z,7.30
2023-01-30T20:17:33.259Z,7.05
2023-01-30T20:28:09.503Z,5.75
2023-01-30T20:38:46.655Z,7.40
2023-01-30T20:49:23.179Z,7.53
2023-01-30T20:59:58.954Z,6.93
2023-01-30T21:10:35.667Z,6.43
2023-01-30T21:21:20.396Z,4.68
2023-01-30T21:31:58.006Z,6.22
2023-01-30T21:42:52.576Z,7.03
2023-01-30T21:53:28.338Z,7.00
2023-01-30T22:04:06.781Z,7.38
2023-01-30T22:14:42.257Z,9.00
2023-01-30T22:25:18.560Z,7.78
